Time;durP1;ratioP1;P1;durP2;ratioP2;P2;SDS_P1;SDS_P2;PMS_P1;PMS_P2;Temp;Humidity;BMP_temperature;BMP_pressure;BME280_temperature;BME280_humidity;BME280_pressure;Samples;Min_cycle;Max_cycle;Signal;HPM_P1;HPM_P2
2023/10/01 00:00:24;;;;;;;7.78;4.75;;;;;;;;;;4383272;32;316931;-84
2023/10/01 00:02:53;;;;;;;7.17;4.97;;;;;;;;;;4372646;32;316807;-82
2023/10/01 00:05:22;;;;;;;12.93;4.28;;;;;;;;;;4382334;32;315512;-83
2023/10/01 00:07:51;;;;;;;7.72;4.45;;;;;;;;;;4372143;32;316561;-83
2023/10/01 00:10:20;;;;;;;7.45;4.50;;;;;;;;;;4380193;32;316716;-83
2023/10/01 00:12:49;;;;;;;8.65;4.95;;;;;;;;;;4371651;32;320067;-90
2023/10/01 00:15:21;;;;;;;11.57;4.25;;;;;;;;;;4382773;32;316703;-87
2023/10/01 00:17:51;;;;;;;8.60;4.45;;;;;;;;;;4373138;32;316648;-86
2023/10/01 00:20:23;;;;;;;7.62;4.22;;;;;;;;;;4383635;32;315666;-90
2023/10/01 00:22:51;;;;;;;6.15;4.80;;;;;;;;;;4372571;32;315604;-89
2023/10/01 00:25:19;;;;;;;7.78;4.15;;;;;;;;;;4383222;32;315598;-83
2023/10/01 00:27:48;;;;;;;10.77;4.60;;;;;;;;;;4371671;32;316536;-89
2023/10/01 00:30:16;;;;;;;11.85;4.32;;;;;;;;;;4380695;32;317610;-88
2023/10/01 00:32:43;;;;;;;9.15;4.47;;;;;;;;;;4371920;32;331375;-89
2023/10/01 00:35:12;;;;;;;8.80;3.33;;;;;;;;;;4383204;32;316806;-88
2023/10/01 00:37:41;;;;;;;8.43;4.82;;;;;;;;;;4371231;32;341274;-84
2023/10/01 00:40:10;;;;;;;7.05;4.53;;;;;;;;;;4377832;32;346297;-83
2023/10/01 00:42:39;;;;;;;17.87;3.95;;;;;;;;;;4370279;32;316631;-85
2023/10/01 00:45:11;;;;;;;5.65;3.53;;;;;;;;;;4381655;32;317613;-83
2023/10/01 00:47:40;;;;;;;12.68;4.82;;;;;;;;;;4371207;32;316886;-83
2023/10/01 00:50:11;;;;;;;6.47;4.78;;;;;;;;;;4377057;32;322685;-83
2023/10/01 00:52:41;;;;;;;10.48;3.83;;;;;;;;;;4371068;32;316840;-88
2023/10/01 00:55:10;;;;;;;12.75;3.83;;;;;;;;;;4382272;32;317820;-83
2023/10/01 00:57:41;;;;;;;8.43;4.07;;;;;;;;;;4373035;32;317640;-89
2023/10/01 01:00:14;;;;;;;7.30;4.18;;;;;;;;;;4380734;32;316698;-83
2023/10/01 01:05:23;;;;;;;9.20;4.50;;;;;;;;;;4352141;32;315246;-82
2023/10/01 01:08:00;;;;;;;6.43;4.80;;;;;;;;;;4343343;32;315292;-82
2023/10/01 01:10:31;;;;;;;6.95;4.70;;;;;;;;;;4351993;32;316281;-81
2023/10/01 01:12:59;;;;;;;7.25;4.40;;;;;;;;;;4333058;32;414949;-89
2023/10/01 01:15:27;;;;;;;6.97;4.70;;;;;;;;;;4342752;32;316264;-89
2023/10/01 01:18:01;;;;;;;11.07;4.97;;;;;;;;;;4328609;32;316777;-88
2023/10/01 01:20:36;;;;;;;8.15;4.85;;;;;;;;;;4325555;32;317858;-90
2023/10/01 01:23:21;;;;;;;13.15;4.60;;;;;;;;;;4301356;32;418957;-89
2023/10/01 01:25:52;;;;;;;11.20;4.85;;;;;;;;;;4312790;32;316537;-88
2023/10/01 01:28:24;;;;;;;12.65;4.45;;;;;;;;;;4340683;32;317513;-88
2023/10/01 01:30:52;;;;;;;8.35;4.40;;;;;;;;;;4330720;32;317934;-88
2023/10/01 01:33:26;;;;;;;11.02;5.37;;;;;;;;;;4338095;32;317113;-83
2023/10/01 01:35:55;;;;;;;6.15;4.75;;;;;;;;;;4320867;32;318045;-85
2023/10/01 01:38:24;;;;;;;7.10;5.18;;;;;;;;;;4340312;32;316572;-83
2023/10/01 01:40:52;;;;;;;8.48;5.43;;;;;;;;;;4329418;32;316930;-83
2023/10/01 01:43:23;;;;;;;9.30;5.20;;;;;;;;;;4339394;32;316660;-83
2023/10/01 01:45:54;;;;;;;8.02;4.57;;;;;;;;;;4327814;32;316717;-82
2023/10/01 01:48:31;;;;;;;11.93;4.37;;;;;;;;;;4337780;32;316902;-82
2023/10/01 01:51:00;;;;;;;9.88;5.10;;;;;;;;;;4330413;32;317845;-82
2023/10/01 01:53:34;;;;;;;9.10;4.53;;;;;;;;;;4340728;32;323445;-83
2023/10/01 01:56:04;;;;;;;10.57;5.22;;;;;;;;;;4322549;32;415978;-83
2023/10/01 01:58:32;;;;;;;5.68;4.30;;;;;;;;;;4338505;32;317666;-89
2023/10/01 02:01:17;;;;;;;8.15;4.45;;;;;;;;;;4322932;32;415754;-89
2023/10/01 02:03:51;;;;;;;15.93;5.05;;;;;;;;;;4327902;32;316867;-86
2023/10/01 02:06:26;;;;;;;8.80;4.07;;;;;;;;;;4340293;32;317966;-89
2023/10/01 02:08:57;;;;;;;9.15;4.75;;;;;;;;;;4329469;32;316542;-88
2023/10/01 02:11:25;;;;;;;12.23;5.07;;;;;;;;;;4340157;32;316827;-83
2023/10/01 02:13:54;;;;;;;9.18;4.65;;;;;;;;;;4326540;32;317752;-82
2023/10/01 02:16:35;;;;;;;7.87;4.75;;;;;;;;;;4339042;32;316754;-82
2023/10/01 02:19:23;;;;;;;11.23;4.60;;;;;;;;;;4326485;32;416235;-82
2023/10/01 02:21:57;;;;;;;10.25;4.80;;;;;;;;;;4325913;32;317811;-82
2023/10/01 02:24:37;;;;;;;15.00;5.47;;;;;;;;;;4340187;32;317730;-81
2023/10/01 02:27:05;;;;;;;6.05;4.60;;;;;;;;;;4327494;32;417904;-81
2023/10/01 02:29:45;;;;;;;6.93;4.55;;;;;;;;;;4340004;32;334526;-82
2023/10/01 02:32:14;;;;;;;8.40;4.90;;;;;;;;;;4326290;32;417049;-82
2023/10/01 02:34:42;;;;;;;9.43;4.43;;;;;;;;;;4327919;32;339654;-81
2023/10/01 02:37:10;;;;;;;6.05;4.78;;;;;;;;;;4340070;32;319520;-86
2023/10/01 02:39:38;;;;;;;6.45;4.22;;;;;;;;;;4328563;32;341120;-82
2023/10/01 02:42:20;;;;;;;5.78;4.35;;;;;;;;;;4337434;32;316628;-81
2023/10/01 02:44:47;;;;;;;9.38;4.32;;;;;;;;;;4325985;32;316745;-82
2023/10/01 02:47:18;;;;;;;12.75;5.03;;;;;;;;;;4339854;32;332518;-82
2023/10/01 02:49:49;;;;;;;14.07;4.43;;;;;;;;;;4324400;32;318111;-85
2023/10/01 02:52:18;;;;;;;10.23;4.70;;;;;;;;;;4337967;32;325797;-82
2023/10/01 02:54:47;;;;;;;11.70;4.37;;;;;;;;;;4328503;32;317710;-82
2023/10/01 02:57:23;;;;;;;10.57;5.50;;;;;;;;;;4338868;32;317932;-83
2023/10/01 03:00:20;;;;;;;9.15;4.87;;;;;;;;;;4324786;32;318143;-82
2023/10/01 03:02:51;;;;;;;12.20;4.82;;;;;;;;;;4330065;32;316968;-89
2023/10/01 03:05:26;;;;;;;14.38;5.43;;;;;;;;;;4338017;32;317709;-89
2023/10/01 03:07:57;;;;;;;7.32;5.05;;;;;;;;;;4326041;32;318174;-88
2023/10/01 03:10:25;;;;;;;5.00;4.40;;;;;;;;;;4337655;32;316640;-89
2023/10/01 03:12:53;;;;;;;7.37;4.68;;;;;;;;;;4328775;32;334276;-89
2023/10/01 03:15:24;;;;;;;13.10;4.68;;;;;;;;;;4337016;32;316866;-89
2023/10/01 03:18:05;;;;;;;6.20;5.55;;;;;;;;;;4325807;32;317751;-82
2023/10/01 03:23:27;;;;;;;5.35;4.53;;;;;;;;;;4326514;32;387908;-82
2023/10/01 03:26:00;;;;;;;8.70;5.53;;;;;;;;;;4326884;32;317030;-82
2023/10/01 03:28:33;;;;;;;6.57;5.15;;;;;;;;;;4339470;32;324688;-82
2023/10/01 03:33:47;;;;;;;8.70;5.22;;;;;;;;;;4326197;32;316865;-84
2023/10/01 03:36:24;;;;;;;6.22;4.85;;;;;;;;;;4337419;32;316808;-82
2023/10/01 03:38:57;;;;;;;12.68;6.03;;;;;;;;;;4324944;32;317053;-85
2023/10/01 03:41:27;;;;;;;9.70;5.62;;;;;;;;;;4337611;32;358802;-82
2023/10/01 03:44:07;;;;;;;8.05;5.22;;;;;;;;;;4324504;32;317031;-85
2023/10/01 03:46:33;;;;;;;9.25;4.70;;;;;;;;;;4320544;32;316957;-84
2023/10/01 03:49:03;;;;;;;10.63;4.95;;;;;;;;;;4335607;32;316947;-84
2023/10/01 03:54:14;;;;;;;13.38;5.62;;;;;;;;;;4322217;32;387195;-82
2023/10/01 03:56:55;;;;;;;14.68;10.85;;;;;;;;;;4328184;32;318037;-83
2023/10/01 03:59:27;;;;;;;17.85;11.10;;;;;;;;;;4337416;32;318889;-82
2023/10/01 04:02:02;;;;;;;22.67;12.45;;;;;;;;;;4324395;32;318971;-83
2023/10/01 04:04:56;;;;;;;16.30;10.20;;;;;;;;;;4335971;32;318897;-82
2023/10/01 04:07:22;;;;;;;14.52;11.20;;;;;;;;;;4326056;32;390786;-83
2023/10/01 04:09:51;;;;;;;14.68;9.98;;;;;;;;;;4325249;32;319052;-85
2023/10/01 04:12:20;;;;;;;11.95;8.63;;;;;;;;;;4338299;32;318007;-84
2023/10/01 04:14:48;;;;;;;21.00;11.70;;;;;;;;;;4327124;32;317926;-85
2023/10/01 04:17:18;;;;;;;20.77;9.55;;;;;;;;;;4335390;32;318918;-91
2023/10/01 04:19:48;;;;;;;17.15;6.93;;;;;;;;;;4327264;32;318024;-84
2023/10/01 04:22:21;;;;;;;23.20;7.07;;;;;;;;;;4332993;32;317891;-89
2023/10/01 04:25:00;;;;;;;14.87;9.02;;;;;;;;;;4327332;32;318152;-81
2023/10/01 04:27:30;;;;;;;21.85;8.82;;;;;;;;;;4338110;32;317972;-88
2023/10/01 04:30:00;;;;;;;20.08;8.95;;;;;;;;;;4324868;32;317916;-87
2023/10/01 04:32:28;;;;;;;19.52;8.88;;;;;;;;;;4337902;32;317629;-89
2023/10/01 04:34:58;;;;;;;18.23;10.00;;;;;;;;;;4327414;32;317902;-89
2023/10/01 04:37:37;;;;;;;21.23;11.15;;;;;;;;;;4338161;32;318937;-83
2023/10/01 04:40:31;;;;;;;19.62;11.00;;;;;;;;;;4319409;32;418203;-82
2023/10/01 04:43:08;;;;;;;27.02;12.48;;;;;;;;;;4327324;32;318965;-82
2023/10/01 04:45:40;;;;;;;24.55;11.00;;;;;;;;;;4325964;32;353691;-84
2023/10/01 04:48:15;;;;;;;22.70;10.85;;;;;;;;;;4338027;32;318841;-82
2023/10/01 04:50:43;;;;;;;31.33;10.20;;;;;;;;;;4329051;32;319114;-83
2023/10/01 04:53:13;;;;;;;20.23;11.18;;;;;;;;;;4341558;32;319129;-82
2023/10/01 04:55:42;;;;;;;19.08;9.90;;;;;;;;;;4331702;32;319148;-82
2023/10/01 04:58:12;;;;;;;17.20;11.10;;;;;;;;;;4338435;32;318183;-82
2023/10/01 05:00:41;;;;;;;21.00;10.63;;;;;;;;;;4329445;32;319173;-84
2023/10/01 05:03:10;;;;;;;17.17;10.70;;;;;;;;;;4338915;32;318853;-81
2023/10/01 05:05:38;;;;;;;26.90;10.70;;;;;;;;;;4330968;32;319407;-85
2023/10/01 05:08:06;;;;;;;24.15;10.20;;;;;;;;;;4335900;32;318816;-83
2023/10/01 05:10:51;;;;;;;23.00;10.50;;;;;;;;;;4333615;32;318959;-85
2023/10/01 05:13:22;;;;;;;16.67;9.95;;;;;;;;;;4340624;32;319084;-82
2023/10/01 05:15:56;;;;;;;19.02;10.20;;;;;;;;;;4326434;32;317834;-86
2023/10/01 05:18:26;;;;;;;19.02;10.43;;;;;;;;;;4338370;32;319178;-87
2023/10/01 05:20:58;;;;;;;19.17;10.30;;;;;;;;;;4331681;32;319110;-81
2023/10/01 05:23:25;;;;;;;17.25;9.30;;;;;;;;;;4341632;32;319050;-80
2023/10/01 05:25:54;;;;;;;18.48;9.77;;;;;;;;;;4325882;32;317963;-80
2023/10/01 05:28:31;;;;;;;19.08;9.32;;;;;;;;;;4338929;32;317973;-82
2023/10/01 05:30:59;;;;;;;16.30;8.15;;;;;;;;;;4329738;32;317977;-80
2023/10/01 05:33:28;;;;;;;18.02;8.68;;;;;;;;;;4341609;32;317951;-80
2023/10/01 05:35:57;;;;;;;20.62;8.63;;;;;;;;;;4324636;32;317970;-81
2023/10/01 05:38:26;;;;;;;12.90;9.88;;;;;;;;;;4339679;32;317823;-82
2023/10/01 05:40:56;;;;;;;17.40;9.45;;;;;;;;;;4329779;32;317730;-82
2023/10/01 05:43:27;;;;;;;18.87;8.32;;;;;;;;;;4340835;32;336814;-82
2023/10/01 05:46:01;;;;;;;18.65;10.05;;;;;;;;;;4325400;32;318096;-81
2023/10/01 05:48:32;;;;;;;26.45;9.40;;;;;;;;;;4340318;32;317958;-82
2023/10/01 05:51:01;;;;;;;20.27;9.48;;;;;;;;;;4328390;32;420209;-85
2023/10/01 05:53:28;;;;;;;21.40;10.55;;;;;;;;;;4340542;32;321662;-85
2023/10/01 05:55:56;;;;;;;17.92;10.05;;;;;;;;;;4328095;32;319019;-85
2023/10/01 05:58:26;;;;;;;15.07;8.90;;;;;;;;;;4336599;32;318948;-92
2023/10/01 06:01:05;;;;;;;17.92;9.48;;;;;;;;;;4329114;32;318321;-91
2023/10/01 06:03:34;;;;;;;16.92;8.25;;;;;;;;;;4340473;32;317783;-87
2023/10/01 06:06:08;;;;;;;17.92;8.40;;;;;;;;;;4323066;32;417197;-85
2023/10/01 06:08:46;;;;;;;28.23;9.77;;;;;;;;;;4327084;32;352132;-89
2023/10/01 06:11:15;;;;;;;14.77;10.20;;;;;;;;;;4340491;32;318049;-90
2023/10/01 06:13:53;;;;;;;22.60;10.73;;;;;;;;;;4327185;32;318924;-86
2023/10/01 06:16:23;;;;;;;18.85;10.13;;;;;;;;;;4338251;32;318996;-86
2023/10/01 06:18:52;;;;;;;23.50;9.80;;;;;;;;;;4328674;32;318909;-87
2023/10/01 06:21:20;;;;;;;29.00;10.90;;;;;;;;;;4340459;32;317816;-85
2023/10/01 06:23:51;;;;;;;17.05;9.82;;;;;;;;;;4325938;32;317865;-86
2023/10/01 06:26:19;;;;;;;14.70;9.48;;;;;;;;;;4339267;32;317711;-86
2023/10/01 06:28:48;;;;;;;23.52;9.57;;;;;;;;;;4328912;32;318114;-84
2023/10/01 06:31:17;;;;;;;19.85;9.25;;;;;;;;;;4339075;32;356953;-87
2023/10/01 06:33:46;;;;;;;16.35;9.13;;;;;;;;;;4328376;32;318080;-88
2023/10/01 06:36:15;;;;;;;18.15;9.77;;;;;;;;;;4340101;32;318146;-88
2023/10/01 06:38:44;;;;;;;16.48;10.95;;;;;;;;;;4330329;32;318460;-87
2023/10/01 06:41:16;;;;;;;26.42;10.23;;;;;;;;;;4338851;32;319166;-84
2023/10/01 06:43:54;;;;;;;17.35;8.40;;;;;;;;;;4327123;32;318719;-86
2023/10/01 06:46:27;;;;;;;17.77;8.55;;;;;;;;;;4338080;32;318000;-85
2023/10/01 06:48:58;;;;;;;24.85;9.32;;;;;;;;;;4330087;32;317868;-84
2023/10/01 06:51:26;;;;;;;17.15;9.40;;;;;;;;;;4339066;32;317809;-83
2023/10/01 06:53:59;;;;;;;16.40;8.07;;;;;;;;;;4323759;32;357831;-84
2023/10/01 06:56:29;;;;;;;14.45;8.80;;;;;;;;;;4338534;32;318147;-85
2023/10/01 06:59:13;;;;;;;16.35;8.60;;;;;;;;;;4329150;32;322646;-84
2023/10/01 07:01:49;;;;;;;13.82;8.57;;;;;;;;;;4323611;32;318060;-84
2023/10/01 07:04:18;;;;;;;14.38;9.30;;;;;;;;;;4335760;32;318149;-86
2023/10/01 07:06:50;;;;;;;23.27;10.30;;;;;;;;;;4328124;32;317850;-84
2023/10/01 07:09:28;;;;;;;20.80;9.77;;;;;;;;;;4338167;32;318795;-84
2023/10/01 07:11:58;;;;;;;18.33;10.32;;;;;;;;;;4327151;32;317922;-87
2023/10/01 07:14:38;;;;;;;18.45;11.05;;;;;;;;;;4339244;32;319132;-85
2023/10/01 07:17:09;;;;;;;14.60;10.43;;;;;;;;;;4326868;32;418385;-85
2023/10/01 07:19:36;;;;;;;19.85;10.45;;;;;;;;;;4327685;32;318911;-85
2023/10/01 07:22:06;;;;;;;14.02;8.80;;;;;;;;;;4337284;32;318974;-85
2023/10/01 07:24:34;;;;;;;13.07;9.60;;;;;;;;;;4339447;32;317947;-84
2023/10/01 07:27:06;;;;;;;17.37;8.93;;;;;;;;;;4325630;32;417016;-85
2023/10/01 07:29:34;;;;;;;15.00;9.50;;;;;;;;;;4338107;32;317924;-85
2023/10/01 07:32:08;;;;;;;19.52;11.12;;;;;;;;;;4280637;32;417388;-85
2023/10/01 07:34:37;;;;;;;23.60;8.77;;;;;;;;;;4328233;32;319070;-88
2023/10/01 07:37:05;;;;;;;15.98;10.02;;;;;;;;;;4338419;32;317654;-85
2023/10/01 07:39:36;;;;;;;12.45;10.30;;;;;;;;;;4336275;32;318754;-86
2023/10/01 07:42:04;;;;;;;16.12;10.48;;;;;;;;;;4322222;32;417742;-85
2023/10/01 07:44:33;;;;;;;26.67;12.20;;;;;;;;;;4338789;32;318599;-85
2023/10/01 07:47:02;;;;;;;18.00;11.15;;;;;;;;;;4324811;32;418047;-85
2023/10/01 07:49:46;;;;;;;17.02;11.82;;;;;;;;;;4337973;32;318765;-84
2023/10/01 07:52:18;;;;;;;18.58;11.10;;;;;;;;;;4320336;32;420574;-84
2023/10/01 07:54:49;;;;;;;17.98;11.55;;;;;;;;;;4328740;32;319459;-83
2023/10/01 07:57:18;;;;;;;20.05;12.70;;;;;;;;;;4338580;32;318830;-85
2023/10/01 07:59:52;;;;;;;19.87;11.97;;;;;;;;;;4325786;32;356598;-85
2023/10/01 08:02:27;;;;;;;14.32;11.60;;;;;;;;;;4337594;32;318821;-84
2023/10/01 08:04:58;;;;;;;17.80;12.27;;;;;;;;;;4326107;32;332974;-84
2023/10/01 08:07:39;;;;;;;18.25;11.45;;;;;;;;;;4338296;32;328181;-85
2023/10/01 08:10:16;;;;;;;18.58;10.30;;;;;;;;;;4321505;32;418077;-85
2023/10/01 08:15:38;;;;;;;16.45;11.57;;;;;;;;;;4337748;32;319057;-84
2023/10/01 08:18:34;;;;;;;15.88;11.02;;;;;;;;;;4318718;32;421766;-84
2023/10/01 08:21:15;;;;;;;18.08;11.63;;;;;;;;;;4324326;32;419227;-86
2023/10/01 08:23:45;;;;;;;13.13;10.68;;;;;;;;;;4326925;32;319090;-85
2023/10/01 08:28:57;;;;;;;22.35;11.65;;;;;;;;;;4328246;32;319005;-84
2023/10/01 08:32:07;;;;;;;18.75;11.57;;;;;;;;;;4337862;32;318874;-83
2023/10/01 08:34:54;;;;;;;16.67;11.90;;;;;;;;;;4335671;32;389931;-84
2023/10/01 08:37:23;;;;;;;25.50;12.23;;;;;;;;;;4326680;32;389877;-83
2023/10/01 08:39:53;;;;;;;17.40;11.30;;;;;;;;;;4317178;32;319329;-84
2023/10/01 08:42:22;;;;;;;21.23;11.43;;;;;;;;;;4334902;32;318731;-83
2023/10/01 08:44:50;;;;;;;20.05;12.30;;;;;;;;;;4326216;32;318825;-86
2023/10/01 08:50:19;;;;;;;21.83;13.40;;;;;;;;;;4314657;32;391056;-85
2023/10/01 08:52:57;;;;;;;16.52;10.95;;;;;;;;;;4327801;32;318903;-85
2023/10/01 08:55:27;;;;;;;20.55;11.55;;;;;;;;;;4337250;32;318749;-85
2023/10/01 08:57:55;;;;;;;15.60;10.33;;;;;;;;;;4324000;32;359173;-85
2023/10/01 09:00:24;;;;;;;16.60;10.80;;;;;;;;;;4333451;32;319348;-86
2023/10/01 09:02:55;;;;;;;15.63;9.82;;;;;;;;;;4327727;32;319074;-85
2023/10/01 09:05:27;;;;;;;13.98;10.57;;;;;;;;;;4336705;32;317638;-85
2023/10/01 09:10:39;;;;;;;11.20;8.13;;;;;;;;;;4319922;32;317923;-87
2023/10/01 09:13:09;;;;;;;15.32;9.68;;;;;;;;;;4336796;32;318256;-84
2023/10/01 09:15:43;;;;;;;16.35;9.85;;;;;;;;;;4325473;32;351952;-85
2023/10/01 09:18:11;;;;;;;13.95;9.38;;;;;;;;;;4334754;32;317905;-87
2023/10/01 09:20:42;;;;;;;18.95;9.25;;;;;;;;;;4327686;32;317696;-84
2023/10/01 09:23:11;;;;;;;13.38;7.68;;;;;;;;;;4338307;32;343842;-85
2023/10/01 09:25:41;;;;;;;15.18;8.68;;;;;;;;;;4328722;32;317741;-84
2023/10/01 09:28:29;;;;;;;15.90;9.35;;;;;;;;;;4336688;32;317716;-85
2023/10/01 09:31:02;;;;;;;11.30;8.85;;;;;;;;;;4309277;32;318111;-86
2023/10/01 09:33:32;;;;;;;15.13;8.70;;;;;;;;;;4339042;32;317612;-85
2023/10/01 09:36:00;;;;;;;23.42;11.27;;;;;;;;;;4326216;32;321485;-85
2023/10/01 09:38:31;;;;;;;15.50;9.98;;;;;;;;;;4338738;32;318735;-88
2023/10/01 09:41:00;;;;;;;19.10;9.02;;;;;;;;;;4329155;32;317798;-87
2023/10/01 09:43:31;;;;;;;18.50;9.93;;;;;;;;;;4340559;32;317885;-87
2023/10/01 09:46:02;;;;;;;19.17;8.95;;;;;;;;;;4302271;32;317871;-84
2023/10/01 09:48:33;;;;;;;16.10;8.40;;;;;;;;;;4330931;32;317671;-86
2023/10/01 09:51:15;;;;;;;14.87;7.28;;;;;;;;;;4327754;32;417446;-83
2023/10/01 09:53:54;;;;;;;14.80;7.43;;;;;;;;;;4328872;32;317839;-83
2023/10/01 09:56:31;;;;;;;16.70;7.25;;;;;;;;;;4339469;32;318063;-83
2023/10/01 09:59:07;;;;;;;11.10;6.75;;;;;;;;;;4328349;32;317997;-81
2023/10/01 10:01:37;;;;;;;13.95;7.00;;;;;;;;;;4325174;32;374586;-80
2023/10/01 10:04:07;;;;;;;20.73;10.25;;;;;;;;;;4338017;32;317772;-88
2023/10/01 10:06:36;;;;;;;17.02;10.30;;;;;;;;;;4330917;32;318959;-88
2023/10/01 10:09:09;;;;;;;20.33;10.63;;;;;;;;;;4339343;32;318775;-87
2023/10/01 10:11:40;;;;;;;20.88;10.70;;;;;;;;;;4331062;32;318863;-83
2023/10/01 10:14:58;;;;;;;11.95;8.57;;;;;;;;;;4334608;32;318989;-86
2023/10/01 10:17:27;;;;;;;22.05;9.85;;;;;;;;;;4305051;32;418256;-88
2023/10/01 10:20:15;;;;;;;23.92;12.20;;;;;;;;;;4322593;32;317589;-87
2023/10/01 10:23:13;;;;;;;14.55;8.57;;;;;;;;;;4328347;32;318829;-86
2023/10/01 10:25:43;;;;;;;15.97;10.60;;;;;;;;;;4328116;32;317955;-85
2023/10/01 10:28:12;;;;;;;13.05;8.48;;;;;;;;;;4336973;32;319060;-83
2023/10/01 10:30:46;;;;;;;16.27;9.25;;;;;;;;;;4328773;32;317842;-83
2023/10/01 10:33:38;;;;;;;11.95;9.40;;;;;;;;;;4335695;32;317747;-80
2023/10/01 10:36:53;;;;;;;12.93;8.25;;;;;;;;;;4324173;32;418212;-81
2023/10/01 10:40:22;;;;;;;17.67;9.95;;;;;;;;;;4325875;32;418184;-83
2023/10/01 10:43:21;;;;;;;17.30;8.18;;;;;;;;;;4325764;32;417434;-83
2023/10/01 10:45:58;;;;;;;11.73;8.07;;;;;;;;;;4313582;32;318116;-82
2023/10/01 10:49:02;;;;;;;13.82;8.23;;;;;;;;;;4339613;32;317627;-82
2023/10/01 10:51:48;;;;;;;9.68;7.85;;;;;;;;;;4337602;32;418021;-82
2023/10/01 10:54:29;;;;;;;18.27;7.40;;;;;;;;;;4324235;32;417331;-81
2023/10/01 10:56:59;;;;;;;11.70;7.85;;;;;;;;;;4329687;32;317976;-82
2023/10/01 10:59:30;;;;;;;15.70;8.13;;;;;;;;;;4336838;32;317921;-82
2023/10/01 11:01:58;;;;;;;11.90;7.50;;;;;;;;;;4325404;32;317740;-82
2023/10/01 11:04:32;;;;;;;13.80;8.13;;;;;;;;;;4329938;32;317564;-88
2023/10/01 11:07:04;;;;;;;13.90;7.70;;;;;;;;;;4329081;32;318156;-87
2023/10/01 11:09:33;;;;;;;12.57;7.80;;;;;;;;;;4337789;32;318049;-86
2023/10/01 11:12:07;;;;;;;11.43;8.32;;;;;;;;;;4320202;32;417115;-86
2023/10/01 11:14:42;;;;;;;16.65;8.75;;;;;;;;;;4331556;32;317841;-87
2023/10/01 11:17:13;;;;;;;20.23;9.25;;;;;;;;;;4336354;32;346888;-86
2023/10/01 11:19:47;;;;;;;12.75;9.68;;;;;;;;;;4329169;32;318122;-86
2023/10/01 11:22:15;;;;;;;18.67;10.35;;;;;;;;;;4334527;32;318000;-83
2023/10/01 11:24:46;;;;;;;17.55;8.30;;;;;;;;;;4328698;32;318932;-84
2023/10/01 11:27:15;;;;;;;13.98;8.32;;;;;;;;;;4337747;32;318069;-84
2023/10/01 11:29:45;;;;;;;11.57;7.82;;;;;;;;;;4326603;32;317796;-84
2023/10/01 11:32:16;;;;;;;16.83;8.35;;;;;;;;;;4335485;32;317793;-86
2023/10/01 11:34:45;;;;;;;15.23;8.25;;;;;;;;;;4328180;32;318052;-85
2023/10/01 11:37:17;;;;;;;14.95;8.60;;;;;;;;;;4338578;32;317854;-86
2023/10/01 11:39:52;;;;;;;15.50;7.75;;;;;;;;;;4325304;32;317901;-86
2023/10/01 11:42:35;;;;;;;14.13;8.10;;;;;;;;;;4337154;32;317692;-86
2023/10/01 11:45:28;;;;;;;9.27;6.65;;;;;;;;;;4326187;32;387258;-86
2023/10/01 11:48:06;;;;;;;18.23;8.13;;;;;;;;;;4321859;32;316910;-87
2023/10/01 11:50:49;;;;;;;13.50;6.82;;;;;;;;;;4335257;32;317934;-87
2023/10/01 11:53:28;;;;;;;23.90;7.72;;;;;;;;;;4325037;32;418350;-87
2023/10/01 11:56:01;;;;;;;9.45;7.07;;;;;;;;;;4323623;32;331304;-87
2023/10/01 11:58:28;;;;;;;9.30;6.37;;;;;;;;;;4337790;32;316708;-88
2023/10/01 12:00:59;;;;;;;9.18;7.55;;;;;;;;;;4328333;32;316709;-87
2023/10/01 12:03:26;;;;;;;8.35;7.03;;;;;;;;;;4337214;32;316708;-87
2023/10/01 12:05:56;;;;;;;13.32;8.77;;;;;;;;;;4322933;32;316682;-87
2023/10/01 12:08:35;;;;;;;11.60;7.90;;;;;;;;;;4336638;32;317816;-87
2023/10/01 12:11:26;;;;;;;12.00;8.02;;;;;;;;;;4324245;32;417148;-87
2023/10/01 12:14:05;;;;;;;15.45;8.43;;;;;;;;;;4322832;32;317748;-85
2023/10/01 12:16:35;;;;;;;16.37;7.93;;;;;;;;;;4335833;32;317840;-85
2023/10/01 12:22:04;;;;;;;15.90;8.47;;;;;;;;;;4326079;32;318040;-87
2023/10/01 12:24:39;;;;;;;12.40;6.68;;;;;;;;;;4337746;32;317773;-86
2023/10/01 12:27:11;;;;;;;14.40;7.07;;;;;;;;;;4324593;32;417441;-86
2023/10/01 12:29:48;;;;;;;11.98;6.80;;;;;;;;;;4325867;32;335905;-86
2023/10/01 12:32:18;;;;;;;13.77;6.70;;;;;;;;;;4337536;32;317990;-86
2023/10/01 12:34:46;;;;;;;12.15;6.57;;;;;;;;;;4326828;32;317711;-90
2023/10/01 12:37:35;;;;;;;12.30;6.93;;;;;;;;;;4335391;32;338872;-89
2023/10/01 12:40:14;;;;;;;16.45;6.25;;;;;;;;;;4321670;32;417601;-89
2023/10/01 12:42:46;;;;;;;10.48;7.00;;;;;;;;;;4327618;32;317775;-90
2023/10/01 12:45:14;;;;;;;11.10;6.93;;;;;;;;;;4338130;32;317981;-89
2023/10/01 12:47:51;;;;;;;11.02;7.53;;;;;;;;;;4328699;32;317357;-90
2023/10/01 12:50:26;;;;;;;11.73;7.47;;;;;;;;;;4339206;32;317415;-89
2023/10/01 12:55:39;;;;;;;10.48;7.32;;;;;;;;;;4323720;32;340585;-91
2023/10/01 12:58:06;;;;;;;9.77;7.22;;;;;;;;;;4335383;32;317805;-91
2023/10/01 13:00:45;;;;;;;10.27;7.15;;;;;;;;;;4341315;32;316531;-90
2023/10/01 13:03:17;;;;;;;16.02;7.57;;;;;;;;;;4328150;32;416981;-93
2023/10/01 13:05:52;;;;;;;14.57;6.95;;;;;;;;;;4330318;32;324516;-92
2023/10/01 13:08:27;;;;;;;11.88;6.80;;;;;;;;;;4349085;32;317727;-92
2023/10/01 13:10:58;;;;;;;12.70;7.95;;;;;;;;;;4339954;32;317397;-91
2023/10/01 13:13:35;;;;;;;9.25;6.72;;;;;;;;;;4344832;32;317478;-93
2023/10/01 13:16:03;;;;;;;18.85;7.47;;;;;;;;;;4325391;32;416061;-92
2023/10/01 13:18:33;;;;;;;8.57;6.40;;;;;;;;;;4338832;32;316573;-91
2023/10/01 13:21:09;;;;;;;9.20;6.43;;;;;;;;;;4327499;32;416678;-93
2023/10/01 13:23:43;;;;;;;10.25;6.40;;;;;;;;;;4330578;32;316870;-92
2023/10/01 13:26:24;;;;;;;13.68;6.32;;;;;;;;;;4336156;32;317610;-92
2023/10/01 13:28:54;;;;;;;11.15;5.85;;;;;;;;;;4330440;32;317670;-90
2023/10/01 13:31:40;;;;;;;12.60;7.40;;;;;;;;;;4342180;32;317673;-92
2023/10/01 13:34:21;;;;;;;10.57;6.68;;;;;;;;;;4323874;32;418001;-91
2023/10/01 13:37:12;;;;;;;10.80;7.07;;;;;;;;;;4327695;32;317781;-90
2023/10/01 13:39:45;;;;;;;12.88;6.97;;;;;;;;;;4329364;32;317731;-86
2023/10/01 14:09:58;;;;;;;12.13;7.15;;;;;;;;;;4325132;32;317023;-91
2023/10/01 14:12:55;;;;;;;9.48;6.70;;;;;;;;;;4337997;32;356306;-89
2023/10/01 14:15:23;;;;;;;15.57;6.72;;;;;;;;;;4324830;32;417104;-91
2023/10/01 14:17:54;;;;;;;12.05;5.90;;;;;;;;;;4321379;32;318093;-86
2023/10/01 14:23:07;;;;;;;9.48;6.28;;;;;;;;;;4327555;32;389776;-86
2023/10/01 14:25:52;;;;;;;7.95;6.40;;;;;;;;;;4339696;32;316640;-86
2023/10/01 14:28:21;;;;;;;8.48;6.28;;;;;;;;;;4318977;32;418352;-86
2023/10/01 14:30:58;;;;;;;10.95;7.00;;;;;;;;;;4328332;32;316757;-86
2023/10/01 14:33:27;;;;;;;11.68;6.37;;;;;;;;;;4337547;32;317731;-85
2023/10/01 14:35:55;;;;;;;7.28;5.62;;;;;;;;;;4325446;32;317979;-86
2023/10/01 14:38:37;;;;;;;9.95;7.10;;;;;;;;;;4334843;32;316670;-87
2023/10/01 14:41:09;;;;;;;8.77;6.75;;;;;;;;;;4327415;32;417233;-88
2023/10/01 14:43:41;;;;;;;11.48;7.60;;;;;;;;;;4328665;32;316945;-87
2023/10/01 14:46:13;;;;;;;10.98;8.13;;;;;;;;;;4335569;32;317694;-87
2023/10/01 14:48:45;;;;;;;10.80;7.80;;;;;;;;;;4327204;32;347170;-87
2023/10/01 14:51:15;;;;;;;9.68;7.70;;;;;;;;;;4338555;32;317755;-85
2023/10/01 14:53:51;;;;;;;10.00;7.78;;;;;;;;;;4329119;32;316989;-86
2023/10/01 14:56:20;;;;;;;9.50;7.68;;;;;;;;;;4336692;32;317813;-87
2023/10/01 14:58:51;;;;;;;10.73;7.50;;;;;;;;;;4327073;32;317069;-88
2023/10/01 15:01:19;;;;;;;9.57;7.65;;;;;;;;;;4338797;32;317726;-88
2023/10/01 15:03:53;;;;;;;13.07;7.80;;;;;;;;;;4327521;32;316772;-89
2023/10/01 15:06:21;;;;;;;13.23;8.40;;;;;;;;;;4337700;32;317470;-92
2023/10/01 15:08:58;;;;;;;13.13;8.27;;;;;;;;;;4324424;32;317865;-91
2023/10/01 15:11:25;;;;;;;15.63;8.65;;;;;;;;;;4337004;32;317821;-91
2023/10/01 15:13:54;;;;;;;15.77;9.32;;;;;;;;;;4319618;32;335844;-92
2023/10/01 15:16:21;;;;;;;13.13;8.43;;;;;;;;;;4338238;32;317633;-92
2023/10/01 15:18:49;;;;;;;21.92;8.40;;;;;;;;;;4326305;32;317665;-91
2023/10/01 15:21:20;;;;;;;11.95;7.93;;;;;;;;;;4338403;32;317675;-91
2023/10/01 15:23:59;;;;;;;13.65;8.82;;;;;;;;;;4324280;32;317802;-91
2023/10/01 15:26:29;;;;;;;13.38;9.50;;;;;;;;;;4338497;32;317514;-93
2023/10/01 15:28:59;;;;;;;13.23;9.57;;;;;;;;;;4327882;32;317648;-92
2023/10/01 15:31:34;;;;;;;18.62;10.13;;;;;;;;;;4336964;32;317755;-93
2023/10/01 15:34:03;;;;;;;14.52;8.88;;;;;;;;;;4321355;32;390219;-93
2023/10/01 15:36:48;;;;;;;16.42;10.35;;;;;;;;;;4336512;32;317517;-92
2023/10/01 15:42:15;;;;;;;14.52;8.90;;;;;;;;;;4310591;32;389762;-93
2023/10/01 15:44:47;;;;;;;16.75;10.13;;;;;;;;;;4326074;32;317728;-91
2023/10/01 15:47:36;;;;;;;12.50;9.00;;;;;;;;;;4336183;32;318880;-94
2023/10/01 15:50:08;;;;;;;19.23;9.88;;;;;;;;;;4319569;32;418076;-95
2023/10/01 15:52:47;;;;;;;13.85;9.70;;;;;;;;;;4323492;32;317951;-91